Time;durP1;ratioP1;P1;durP2;ratioP2;P2;SDS_P1;SDS_P2;PMS_P1;PMS_P2;Temp;Humidity;BMP_temperature;BMP_pressure;BME280_temperature;BME280_humidity;BME280_pressure;Samples;Min_cycle;Max_cycle;Signal;HPM_P1;HPM_P2
2021/06/01 00:01:50;;;;;;;4.72;2.47;;;;;;;8.30;78.30;100703.59;1771277;79;21296;-71
2021/06/01 00:04:17;;;;;;;4.90;2.33;;;;;;;8.27;78.44;100706.20;1782769;79;21144;-71
2021/06/01 00:06:44;;;;;;;6.17;2.50;;;;;;;8.23;78.53;100700.55;1785326;79;21085;-69
2021/06/01 00:09:21;;;;;;;5.50;2.55;;;;;;;8.20;78.67;100705.02;1764403;80;21123;-70
2021/06/01 00:11:49;;;;;;;4.22;2.30;;;;;;;8.20;78.79;100702.35;1773613;79;21120;-70
2021/06/01 00:14:16;;;;;;;4.85;2.17;;;;;;;8.21;78.87;100703.16;1784661;79;21108;-70
2021/06/01 00:16:43;;;;;;;4.15;2.58;;;;;;;8.20;78.92;100700.22;1781726;79;21108;-69
2021/06/01 00:19:10;;;;;;;4.47;2.60;;;;;;;8.19;78.94;100702.57;1784410;79;21148;-68
2021/06/01 00:21:38;;;;;;;6.65;2.92;;;;;;;8.18;78.94;100697.78;1768483;79;21108;-70
2021/06/01 00:24:05;;;;;;;4.55;2.80;;;;;;;8.18;78.98;100704.43;1794400;79;21124;-69
2021/06/01 00:26:33;;;;;;;6.22;2.27;;;;;;;8.18;79.01;100704.43;1775050;79;21096;-70
2021/06/01 00:28:59;;;;;;;5.25;2.47;;;;;;;8.19;79.04;100705.23;1784048;79;22258;-69
2021/06/01 00:31:26;;;;;;;4.05;2.52;;;;;;;8.19;79.11;100701.24;1772934;79;21090;-70
2021/06/01 00:33:53;;;;;;;4.53;2.40;;;;;;;8.18;79.12;100704.95;1779013;79;21071;-69
2021/06/01 00:36:20;;;;;;;4.25;2.22;;;;;;;8.17;79.21;100702.02;1742207;81;21522;-70
2021/06/01 00:38:46;;;;;;;6.47;2.60;;;;;;;8.18;79.26;100707.09;1772981;79;21105;-70
2021/06/01 00:41:13;;;;;;;3.65;2.47;;;;;;;8.17;79.30;100708.14;1776952;79;21116;-70
2021/06/01 00:43:40;;;;;;;6.92;2.47;;;;;;;8.17;79.32;100712.66;1774816;79;21092;-70
2021/06/01 00:46:07;;;;;;;8.58;3.00;;;;;;;8.15;79.34;100715.55;1785300;79;21119;-70
2021/06/01 00:48:34;;;;;;;7.83;2.72;;;;;;;8.13;79.37;100711.53;1773734;79;21692;-69
2021/06/01 00:51:00;;;;;;;5.33;2.70;;;;;;;8.11;79.38;100707.76;1776185;79;21103;-69
2021/06/01 00:53:27;;;;;;;4.95;2.40;;;;;;;8.09;79.44;100709.83;1782443;79;21112;-70
2021/06/01 00:55:55;;;;;;;6.33;2.95;;;;;;;8.04;79.55;100707.62;1784607;79;21104;-69
2021/06/01 00:58:22;;;;;;;5.62;3.30;;;;;;;8.01;79.65;100710.22;1778433;79;21138;-70
2021/06/01 01:03:24;;;;;;;6.95;2.55;;;;;;;7.97;79.80;100705.09;1732763;81;21071;-71
2021/06/01 01:05:55;;;;;;;5.80;2.60;;;;;;;7.96;79.90;100706.95;1739420;81;21573;-70
2021/06/01 01:08:55;;;;;;;5.35;2.62;;;;;;;7.94;79.95;100704.23;1743728;81;21131;-70
2021/06/01 01:11:39;;;;;;;7.15;2.80;;;;;;;7.95;79.95;100704.51;1731546;81;21122;-70
2021/06/01 01:14:23;;;;;;;5.28;2.37;;;;;;;7.95;79.97;100704.51;1740387;81;21198;-70
2021/06/01 01:17:04;;;;;;;4.85;2.47;;;;;;;7.92;79.99;100699.66;1738294;81;21118;-70
2021/06/01 01:19:55;;;;;;;5.03;2.75;;;;;;;7.89;80.12;100699.60;1748223;81;21094;-71
2021/06/01 01:22:22;;;;;;;5.60;2.80;;;;;;;7.84;80.13;100700.84;1779466;79;21092;-70
2021/06/01 01:25:06;;;;;;;7.05;2.85;;;;;;;7.82;80.25;100700.78;1790298;79;21144;-70
2021/06/01 01:28:08;;;;;;;4.00;2.40;;;;;;;7.78;80.29;100702.30;1779351;79;21622;-71
2021/06/01 01:30:47;;;;;;;4.75;2.40;;;;;;;7.76;80.43;100694.55;1742958;80;21823;-70
2021/06/01 01:33:29;;;;;;;5.53;3.08;;;;;;;7.74;80.53;100701.97;1781771;79;21679;-70
2021/06/01 01:35:58;;;;;;;5.72;2.90;;;;;;;7.70;80.67;100700.30;1737570;81;21096;-70
2021/06/01 01:38:25;;;;;;;6.30;3.02;;;;;;;7.69;80.80;100700.52;1751950;79;21084;-70
2021/06/01 01:40:56;;;;;;;5.92;2.60;;;;;;;7.68;80.97;100700.24;1788833;79;21668;-70
2021/06/01 01:43:25;;;;;;;5.33;2.67;;;;;;;7.66;81.09;100708.44;1755784;80;21088;-69
2021/06/01 01:46:00;;;;;;;5.22;2.60;;;;;;;7.64;81.20;100706.55;1785776;79;21091;-70
2021/06/01 01:51:14;;;;;;;4.53;2.60;;;;;;;7.62;81.35;100703.83;1776209;79;21566;-70
2021/06/01 01:53:53;;;;;;;7.03;2.87;;;;;;;7.61;81.41;100706.20;1766259;79;21164;-69
2021/06/01 01:56:36;;;;;;;4.92;3.00;;;;;;;7.60;81.50;100703.24;1784491;79;21069;-68
2021/06/01 01:59:03;;;;;;;5.83;2.52;;;;;;;7.60;81.52;100708.06;1780642;79;20997;-69
2021/06/01 02:01:33;;;;;;;6.72;2.80;;;;;;;7.59;81.58;100710.94;1759063;80;21092;-69
2021/06/01 02:04:00;;;;;;;5.42;2.95;;;;;;;7.55;81.63;100703.95;1783515;79;21155;-70
2021/06/01 02:06:28;;;;;;;5.95;2.87;;;;;;;7.56;81.71;100705.56;1787244;79;21119;-68
2021/06/01 02:08:56;;;;;;;5.22;2.60;;;;;;;7.55;81.81;100708.47;1752902;80;21096;-70
2021/06/01 02:11:23;;;;;;;5.37;2.70;;;;;;;7.54;82.00;100706.33;1772737;79;21068;-69
2021/06/01 02:13:58;;;;;;;6.10;2.90;;;;;;;7.53;82.07;100702.04;1776561;79;21111;-69
2021/06/01 02:16:23;;;;;;;5.10;2.67;;;;;;;7.55;82.16;100704.48;1787149;79;21111;-69
2021/06/01 02:18:51;;;;;;;7.20;3.20;;;;;;;7.55;82.18;100706.61;1786914;79;22900;-68
2021/06/01 02:24:14;;;;;;;6.55;2.75;;;;;;;7.55;82.30;100703.95;1773044;79;21618;-69
2021/06/01 02:27:09;;;;;;;4.47;2.60;;;;;;;7.57;82.27;100701.88;1745934;80;21773;-70
2021/06/01 02:30:06;;;;;;;5.42;2.72;;;;;;;7.60;82.29;100706.73;1738356;81;21082;-70
2021/06/01 02:32:54;;;;;;;4.35;2.50;;;;;;;7.61;82.25;100704.36;1728851;81;21832;-70
2021/06/01 02:35:31;;;;;;;4.42;2.77;;;;;;;7.65;82.23;100700.70;1735866;81;21132;-70
2021/06/01 02:38:00;;;;;;;5.45;3.00;;;;;;;7.66;82.24;100707.10;1737542;81;21536;-70
2021/06/01 02:40:29;;;;;;;7.22;3.20;;;;;;;7.68;82.32;100702.90;1772259;80;21080;-70
2021/06/01 02:42:57;;;;;;;4.53;2.40;;;;;;;7.71;82.26;100701.11;1783395;79;21119;-69
2021/06/01 02:45:24;;;;;;;4.10;2.42;;;;;;;7.74;82.29;100703.30;1791613;79;21732;-70
2021/06/01 02:47:52;;;;;;;6.60;3.12;;;;;;;7.77;82.17;100705.49;1793350;78;21028;-70
2021/06/01 02:50:19;;;;;;;5.42;2.60;;;;;;;7.82;82.09;100708.23;1782286;79;21069;-70
2021/06/01 02:52:46;;;;;;;3.98;2.50;;;;;;;7.86;82.07;100705.39;1781944;79;21151;-70
2021/06/01 02:55:17;;;;;;;4.40;2.80;;;;;;;7.94;81.97;100708.22;1784537;79;21610;-70
2021/06/01 02:57:44;;;;;;;4.58;2.70;;;;;;;7.99;81.90;100704.31;1791553;79;21855;-71
2021/06/01 03:00:15;;;;;;;5.67;2.72;;;;;;;8.05;81.68;100705.23;1781161;79;21088;-70
2021/06/01 03:02:42;;;;;;;7.45;3.00;;;;;;;8.09;81.44;100707.70;1783182;79;21045;-69
2021/06/01 03:05:10;;;;;;;6.70;3.22;;;;;;;8.15;81.23;100703.57;1809705;79;21132;-70
2021/06/01 03:07:41;;;;;;;4.97;2.90;;;;;;;8.22;81.05;100700.77;1788721;79;21069;-69
2021/06/01 03:10:11;;;;;;;;;;;;;;;8.30;80.63;100702.27;1786094;79;21549;-70
2021/06/01 03:12:54;;;;;;;5.83;2.98;;;;;;;8.35;80.46;100709.80;1781309;79;20591;-70
2021/06/01 03:15:17;;;;;;;5.12;3.20;;;;;;;8.40;80.37;100705.94;1778569;80;21061;-69
2021/06/01 03:17:45;;;;;;;6.47;2.87;;;;;;;8.49;80.09;100705.54;1788796;79;21634;-71
2021/06/01 03:20:13;;;;;;;5.75;2.90;;;;;;;8.55;79.56;100711.24;1773006;79;21179;-71
2021/06/01 03:22:40;;;;;;;7.37;3.22;;;;;;;8.61;79.21;100713.75;1781438;79;21435;-71
2021/06/01 03:25:09;;;;;;;5.72;2.92;;;;;;;8.67;78.92;100714.13;1784082;79;21065;-70
2021/06/01 03:27:36;;;;;;;5.72;3.25;;;;;;;8.76;78.69;100709.76;1797706;79;21599;-71
2021/06/01 03:30:06;;;;;;;6.53;3.05;;;;;;;8.83;78.50;100711.73;1783752;79;21144;-70
2021/06/01 03:32:33;;;;;;;5.47;3.05;;;;;;;8.89;78.07;100710.77;1783313;79;21018;-69
2021/06/01 03:34:59;;;;;;;5.62;2.87;;;;;;;8.96;77.81;100704.76;1782287;79;21159;-70
2021/06/01 03:37:28;;;;;;;6.60;3.25;;;;;;;9.03;77.49;100705.92;1782882;79;21136;-70
2021/06/01 03:39:55;;;;;;;6.67;3.00;;;;;;;9.10;77.36;100696.70;1787618;79;21312;-69
2021/06/01 03:42:21;;;;;;;6.87;3.35;;;;;;;9.15;77.00;100703.45;1784333;79;21062;-70
2021/06/01 03:44:48;;;;;;;4.85;3.10;;;;;;;9.21;76.79;100700.85;1779465;78;21648;-69
2021/06/01 03:47:15;;;;;;;4.58;3.35;;;;;;;9.27;76.03;100706.02;1786010;79;21160;-70
2021/06/01 03:49:42;;;;;;;6.22;3.17;;;;;;;9.30;75.49;100694.86;1785809;79;21838;-69
2021/06/01 03:52:09;;;;;;;5.05;2.77;;;;;;;9.34;75.19;100693.84;1781166;79;21030;-70
2021/06/01 03:54:37;;;;;;;8.33;3.08;;;;;;;9.42;75.16;100697.45;1780519;79;21091;-70
2021/06/01 03:57:06;;;;;;;5.62;3.10;;;;;;;9.50;74.29;100686.88;1781487;79;21576;-69
2021/06/01 03:59:33;;;;;;;5.67;3.20;;;;;;;9.58;74.34;100693.12;1787098;79;21856;-68
2021/06/01 04:02:00;;;;;;;4.22;2.98;;;;;;;9.70;74.40;100687.66;1783350;79;21056;-69
2021/06/01 04:04:27;;;;;;;5.80;2.95;;;;;;;9.83;73.98;100681.95;1775245;79;21060;-70
2021/06/01 04:06:53;;;;;;;4.33;3.00;;;;;;;9.93;73.19;100685.27;1786327;79;21530;-69
2021/06/01 04:09:22;;;;;;;6.40;3.20;;;;;;;10.01;72.60;100681.64;1784072;79;21140;-70
2021/06/01 04:11:49;;;;;;;5.03;3.17;;;;;;;10.10;72.08;100690.00;1716502;81;21118;-69
2021/06/01 04:14:18;;;;;;;5.35;3.10;;;;;;;10.19;71.62;100687.70;1781774;79;21096;-70
2021/06/01 04:16:45;;;;;;;4.35;3.08;;;;;;;10.26;71.04;100683.80;1786819;79;21615;-70
2021/06/01 04:19:14;;;;;;;4.50;3.10;;;;;;;10.36;70.83;100687.63;1786523;79;21172;-70
2021/06/01 04:21:42;;;;;;;5.72;3.15;;;;;;;10.43;70.43;100681.55;1780547;80;21092;-69
2021/06/01 04:24:10;;;;;;;4.15;3.15;;;;;;;10.50;70.07;100677.64;1774564;79;21130;-69
2021/06/01 04:26:37;;;;;;;7.15;3.10;;;;;;;10.59;68.84;100679.30;1770514;79;21020;-70
2021/06/01 04:29:04;;;;;;;6.85;3.20;;;;;;;10.64;68.99;100690.05;1784690;79;21129;-70
2021/06/01 04:31:31;;;;;;;7.12;3.42;;;;;;;10.71;68.19;100679.14;1783793;79;21093;-70
2021/06/01 04:33:58;;;;;;;4.65;3.15;;;;;;;10.74;68.10;100684.78;1784895;79;21646;-70
2021/06/01 04:36:25;;;;;;;6.10;3.27;;;;;;;10.79;67.95;100679.50;1740998;81;21135;-70
2021/06/01 04:38:53;;;;;;;5.30;2.80;;;;;;;10.88;67.88;100682.48;1745514;81;21083;-70
2021/06/01 04:41:19;;;;;;;9.88;3.25;;;;;;;10.96;67.03;100682.03;1737427;81;21926;-70
2021/06/01 04:43:46;;;;;;;5.30;2.70;;;;;;;11.04;66.73;100681.53;1736109;81;21082;-69
2021/06/01 04:46:13;;;;;;;5.33;2.63;;;;;;;11.13;66.67;100678.40;1734848;81;21400;-69
2021/06/01 04:48:39;;;;;;;4.57;2.87;;;;;;;11.21;66.02;100680.04;1781682;79;21328;-70
2021/06/01 04:51:16;;;;;;;4.40;2.80;;;;;;;11.27;65.34;100679.55;1784939;79;21865;-70
2021/06/01 04:53:35;;;;;;;6.47;2.90;;;;;;;11.30;65.30;100672.34;1787944;79;22080;-69
2021/06/01 04:56:03;;;;;;;4.80;2.50;;;;;;;11.34;65.21;100669.42;1782054;79;21490;-69
2021/06/01 04:58:29;;;;;;;5.27;2.47;;;;;;;11.37;65.22;100670.24;1782107;79;21432;-70
2021/06/01 05:00:56;;;;;;;6.57;2.90;;;;;;;11.42;65.11;100670.28;1784905;79;21205;-69
2021/06/01 05:03:23;;;;;;;6.57;2.80;;;;;;;11.50;65.19;100661.75;1784375;79;21352;-69
2021/06/01 05:05:49;;;;;;;5.33;2.80;;;;;;;11.59;64.64;100669.30;1773544;79;21766;-70
2021/06/01 05:08:16;;;;;;;6.17;2.87;;;;;;;11.70;64.95;100673.61;1783439;79;21232;-70
2021/06/01 05:10:43;;;;;;;5.00;2.60;;;;;;;11.76;64.00;100673.91;1788790;79;21345;-69
2021/06/01 05:13:10;;;;;;;5.40;2.70;;;;;;;11.80;63.42;100673.66;1782841;79;22721;-68
2021/06/01 05:15:36;;;;;;;6.57;2.40;;;;;;;11.84;63.20;100665.91;1794787;79;21268;-71
2021/06/01 05:18:04;;;;;;;4.70;2.60;;;;;;;11.85;62.63;100660.87;1797374;79;21317;-70
2021/06/01 05:20:31;;;;;;;6.03;2.50;;;;;;;11.86;62.26;100662.47;1790193;79;21308;-70
2021/06/01 05:22:57;;;;;;;4.83;2.50;;;;;;;11.87;61.95;100665.41;1780216;79;21361;-69
2021/06/01 05:25:24;;;;;;;6.33;2.47;;;;;;;11.88;62.15;100671.05;1776499;79;21331;-69
2021/06/01 05:27:52;;;;;;;4.20;2.50;;;;;;;11.90;62.03;100668.36;1783403;79;21571;-70
2021/06/01 05:30:29;;;;;;;4.47;2.57;;;;;;;11.92;61.70;100663.56;1785167;79;21199;-69
2021/06/01 05:35:38;;;;;;;4.63;2.67;;;;;;;12.01;61.79;100675.09;1788723;79;21351;-69
2021/06/01 05:37:47;;;;;;;5.03;2.50;;;;;;;12.08;62.06;100663.61;1779043;79;21304;-69
2021/06/01 05:40:15;;;;;;;5.43;2.20;;;;;;;12.14;61.30;100669.23;1793479;79;21088;-69
2021/06/01 05:42:42;;;;;;;5.67;2.17;;;;;;;12.16;60.32;100666.56;1784581;79;21836;-70
2021/06/01 05:45:11;;;;;;;4.40;2.20;;;;;;;12.15;60.62;100665.50;1783177;79;21174;-70
2021/06/01 05:47:38;;;;;;;4.53;2.50;;;;;;;12.18;60.33;100669.80;1790889;79;21388;-70
2021/06/01 05:50:06;;;;;;;4.10;2.30;;;;;;;12.22;60.40;100667.39;1781657;79;21381;-70
2021/06/01 05:52:35;;;;;;;5.63;2.37;;;;;;;12.30;60.29;100668.19;1785491;79;21381;-69
2021/06/01 05:55:04;;;;;;;3.63;2.10;;;;;;;12.42;59.92;100667.95;1781837;79;21123;-69
2021/06/01 05:57:32;;;;;;;3.93;2.50;;;;;;;12.51;60.08;100666.36;1782643;79;21873;-71
2021/06/01 05:59:59;;;;;;;5.03;2.20;;;;;;;12.63;60.77;100671.44;1777085;79;21149;-70
2021/06/01 06:02:25;;;;;;;4.27;2.03;;;;;;;12.77;59.56;100675.75;1785635;79;21262;-69
2021/06/01 06:04:52;;;;;;;3.57;2.37;;;;;;;12.86;59.90;100672.78;1737897;81;21186;-69
2021/06/01 06:07:19;;;;;;;5.37;2.27;;;;;;;12.96;59.50;100677.33;1737780;81;21476;-69
2021/06/01 06:09:47;;;;;;;4.90;2.20;;;;;;;13.02;59.52;100680.28;1752739;81;21765;-69
2021/06/01 06:12:14;;;;;;;6.03;2.33;;;;;;;13.08;59.79;100681.34;1746935;81;21312;-68
2021/06/01 06:14:42;;;;;;;4.77;1.87;;;;;;;13.14;59.19;100689.66;1741109;81;22452;-69
2021/06/01 06:17:14;;;;;;;3.00;1.97;;;;;;;13.22;59.15;100688.29;1740816;81;21282;-69
2021/06/01 06:19:43;;;;;;;4.17;1.93;;;;;;;13.35;58.56;100681.05;1731457;81;21807;-69
2021/06/01 06:22:09;;;;;;;4.17;2.30;;;;;;;13.56;58.77;100690.41;1742982;81;21344;-70
2021/06/01 06:24:36;;;;;;;5.07;2.20;;;;;;;13.80;57.88;100691.92;1742632;81;21404;-70
2021/06/01 06:27:05;;;;;;;4.13;2.13;;;;;;;13.80;57.88;100691.92;1737113;81;21423;-71
2021/06/01 06:29:32;;;;;;;4.07;2.20;;;;;;;13.96;57.64;100676.00;1781557;79;21349;-70
2021/06/01 06:32:02;;;;;;;10.63;2.70;;;;;;;14.17;57.61;100677.23;1787209;79;21450;-70
2021/06/01 06:34:29;;;;;;;4.60;2.20;;;;;;;14.31;56.01;100669.62;1788444;79;22120;-70
2021/06/01 06:36:56;;;;;;;5.20;2.10;;;;;;;14.42;54.84;100665.53;1785615;79;21501;-70
2021/06/01 06:39:23;;;;;;;5.20;2.30;;;;;;;14.50;54.54;100664.92;1780579;79;22285;-69
2021/06/01 06:41:50;;;;;;;3.73;2.07;;;;;;;14.50;54.54;100664.92;1787104;79;21768;-69
2021/06/01 06:44:18;;;;;;;5.03;2.00;;;;;;;14.46;54.57;100663.33;1781176;79;21588;-70
2021/06/01 06:47:02;;;;;;;5.97;1.90;;;;;;;14.42;54.37;100670.36;1782818;80;22340;-69
2021/06/01 06:49:15;;;;;;;4.37;1.93;;;;;;;14.36;54.22;100659.38;1776587;79;22314;-70
2021/06/01 06:51:43;;;;;;;13.50;2.40;;;;;;;14.35;54.20;100662.36;1783384;79;21811;-70
2021/06/01 06:54:11;;;;;;;4.77;1.87;;;;;;;14.34;54.27;100664.77;1781380;79;21761;-71
2021/06/01 06:56:37;;;;;;;5.03;1.80;;;;;;;14.20;53.43;100666.73;1783044;79;21595;-70
2021/06/01 06:59:05;;;;;;;2.93;1.53;;;;;;;14.07;53.08;100670.83;1784122;79;21879;-70
2021/06/01 07:01:32;;;;;;;3.80;1.43;;;;;;;14.04;53.42;100663.87;1781632;79;21649;-70
2021/06/01 07:04:00;;;;;;;3.83;1.63;;;;;;;14.14;53.60;100655.75;1787687;79;21769;-71
2021/06/01 07:06:27;;;;;;;3.97;1.47;;;;;;;14.34;53.82;100662.08;1781815;79;22275;-70
2021/06/01 07:08:55;;;;;;;3.87;1.67;;;;;;;14.54;52.60;100656.58;1801844;79;21677;-71
2021/06/01 07:11:22;;;;;;;3.93;1.37;;;;;;;14.77;52.47;100628.16;1786976;79;21774;-70
2021/06/01 07:14:11;;;;;;;3.33;1.30;;;;;;;14.94;51.31;100654.66;1771374;80;38177;-69
2021/06/01 07:16:38;;;;;;;2.43;1.20;;;;;;;15.10;50.81;100659.31;1770382;79;21785;-68
2021/06/01 07:19:05;;;;;;;4.43;1.40;;;;;;;15.30;50.46;100651.58;1782692;79;22307;-70
2021/06/01 07:21:32;;;;;;;2.80;1.30;;;;;;;15.45;48.97;100644.69;1798881;79;21824;-71
2021/06/01 07:23:59;;;;;;;3.40;1.43;;;;;;;15.52;47.93;100638.41;1769575;79;21807;-69
2021/06/01 07:26:26;;;;;;;2.23;1.30;;;;;;;15.56;48.57;100640.77;1786701;79;21202;-69
2021/06/01 07:28:54;;;;;;;2.23;1.10;;;;;;;15.58;48.03;100646.67;1777371;78;21804;-70
2021/06/01 07:31:21;;;;;;;3.27;1.37;;;;;;;15.66;48.03;100654.16;1784745;79;21647;-69
2021/06/01 07:33:48;;;;;;;2.47;1.40;;;;;;;15.66;48.03;100654.16;1791947;79;21057;-70
2021/06/01 07:36:15;;;;;;;2.30;1.10;;;;;;;15.84;48.26;100657.96;1790805;79;21143;-69
2021/06/01 07:38:43;;;;;;;3.87;1.40;;;;;;;15.97;46.09;100649.72;1786539;79;21738;-70
2021/06/01 07:41:09;;;;;;;2.73;1.20;;;;;;;15.99;47.15;100654.28;1791258;79;21596;-69
2021/06/01 07:43:36;;;;;;;4.00;1.30;;;;;;;16.02;45.73;100657.70;1783757;79;21064;-69
2021/06/01 07:46:03;;;;;;;4.20;1.60;;;;;;;15.99;45.39;100658.31;1773861;79;21622;-70
2021/06/01 07:48:36;;;;;;;4.27;1.57;;;;;;;15.92;46.53;100653.81;1753230;80;21126;-70
2021/06/01 07:51:03;;;;;;;2.53;1.03;;;;;;;15.79;45.73;100658.56;1753122;81;21028;-71
2021/06/01 07:53:33;;;;;;;5.90;1.70;;;;;;;15.53;46.04;100670.98;1781240;79;21495;-69
2021/06/01 07:55:59;;;;;;;3.00;1.13;;;;;;;15.31;46.29;100663.41;1789933;79;21164;-69
2021/06/01 07:58:26;;;;;;;3.50;1.57;;;;;;;15.19;46.61;100662.45;1787346;79;21614;-69
2021/06/01 08:00:53;;;;;;;4.63;1.50;;;;;;;15.14;47.51;100654.45;1793618;79;21117;-69
2021/06/01 08:03:20;;;;;;;4.27;1.47;;;;;;;15.12;47.29;100655.27;1786210;79;21076;-69
2021/06/01 08:05:47;;;;;;;2.73;1.27;;;;;;;15.12;47.29;100655.27;1754474;80;21779;-70
2021/06/01 08:08:14;;;;;;;2.43;1.30;;;;;;;15.19;48.06;100658.41;1748301;80;21228;-70
2021/06/01 08:10:41;;;;;;;3.53;1.30;;;;;;;15.35;47.07;100655.02;1746932;80;21167;-68
2021/06/01 08:13:11;;;;;;;5.83;1.40;;;;;;;15.45;46.42;100647.37;1749025;80;21159;-70
2021/06/01 08:15:39;;;;;;;2.57;1.40;;;;;;;15.51;46.36;100642.73;1755150;80;21051;-69
2021/06/01 08:18:07;;;;;;;5.13;1.37;;;;;;;15.48;46.03;100638.73;1753388;80;21622;-72
2021/06/01 08:20:40;;;;;;;3.73;1.30;;;;;;;15.41;46.07;100639.08;1774774;79;21046;-71
2021/06/01 08:23:05;;;;;;;4.05;1.20;;;;;;;15.42;46.19;100639.32;1788686;79;21093;-70
2021/06/01 08:25:33;;;;;;;5.43;1.40;;;;;;;15.54;46.67;100635.44;1788209;79;21089;-71
2021/06/01 08:28:00;;;;;;;2.07;1.10;;;;;;;15.60;46.14;100633.74;1756550;80;21756;-69
2021/06/01 08:30:31;;;;;;;3.17;1.07;;;;;;;15.70;46.21;100636.88;1783965;79;21044;-71
2021/06/01 08:32:58;;;;;;;3.40;1.47;;;;;;;15.84;46.01;100636.96;1793744;79;21053;-70
2021/06/01 08:35:25;;;;;;;3.63;1.30;;;;;;;15.91;45.54;100627.97;1786325;79;21116;-70
2021/06/01 08:37:52;;;;;;;3.53;1.37;;;;;;;15.94;45.40;100630.09;1784576;79;21069;-69
2021/06/01 08:40:18;;;;;;;2.73;1.47;;;;;;;15.89;45.47;100635.53;1788490;79;21064;-69
2021/06/01 08:42:45;;;;;;;3.03;1.30;;;;;;;15.81;44.92;100629.46;1787686;79;21041;-68
2021/06/01 08:45:12;;;;;;;4.43;1.50;;;;;;;15.77;44.07;100627.89;1785099;79;21124;-69
2021/06/01 08:47:39;;;;;;;2.63;1.40;;;;;;;15.80;44.29;100625.17;1783832;79;21092;-71
2021/06/01 08:50:09;;;;;;;2.60;1.50;;;;;;;15.86;44.62;100618.60;1768142;79;21068;-71
2021/06/01 08:52:36;;;;;;;5.77;1.60;;;;;;;15.86;44.35;100619.43;1781056;79;21077;-71
2021/06/01 08:55:06;;;;;;;12.33;2.63;;;;;;;15.84;43.79;100615.42;1784349;79;21617;-71
2021/06/01 08:57:36;;;;;;;12.93;2.20;;;;;;;15.75;43.83;100621.19;1777533;79;21092;-70
2021/06/01 09:00:10;;;;;;;5.80;1.63;;;;;;;15.71;44.96;100620.42;1781398;79;21582;-70
2021/06/01 09:02:37;;;;;;;5.30;1.70;;;;;;;15.86;45.48;100618.08;1781185;79;21140;-71
2021/06/01 09:05:07;;;;;;;6.57;1.50;;;;;;;16.08;45.46;100616.13;1787129;79;21081;-69
2021/06/01 09:08:00;;;;;;;3.43;1.50;;;;;;;16.34;43.79;100626.53;1786436;79;21143;-71
2021/06/01 09:21:13;;;;;;;6.93;1.53;;;;;;;17.12;41.21;100604.72;1782850;79;21042;-70
2021/06/01 09:23:57;;;;;;;4.10;1.30;;;;;;;17.02;41.61;100611.66;1789142;79;21100;-70
2021/06/01 09:29:30;;;;;;;3.93;1.60;;;;;;;16.78;42.42;100608.58;1798790;79;21041;-70
2021/06/01 09:32:18;;;;;;;2.62;1.45;;;;;;;16.72;42.51;100608.39;1777059;79;21094;-68
2021/06/01 09:34:48;;;;;;;2.57;1.40;;;;;;;16.72;41.73;100596.80;1783751;79;21650;-70
2021/06/01 09:37:18;;;;;;;5.47;1.80;;;;;;;16.78;42.48;100604.53;1785237;79;21009;-70
2021/06/01 09:39:45;;;;;;;3.02;1.40;;;;;;;16.88;42.50;100603.55;1784065;79;21525;-70
2021/06/01 09:42:29;;;;;;;2.50;1.43;;;;;;;16.79;39.82;100598.59;1762980;80;21097;-69
2021/06/01 09:45:07;;;;;;;3.10;1.40;;;;;;;16.73;40.91;100605.13;1781935;79;21162;-70
2021/06/01 09:47:45;;;;;;;5.50;1.30;;;;;;;16.78;40.22;100590.22;1783766;78;21061;-71
2021/06/01 09:50:28;;;;;;;3.47;1.30;;;;;;;16.67;39.96;100599.58;1784042;79;21650;-69
2021/06/01 09:52:54;;;;;;;3.50;1.57;;;;;;;16.54;40.28;100588.45;1787531;79;21085;-70
2021/06/01 09:55:31;;;;;;;2.20;1.30;;;;;;;16.62;41.62;100601.83;1782695;79;21128;-70
2021/06/01 09:57:56;;;;;;;2.87;1.37;;;;;;;16.71;40.74;100591.93;1782815;79;21113;-69
2021/06/01 10:00:25;;;;;;;2.80;1.30;;;;;;;16.67;40.47;100597.67;1784137;79;21169;-70
2021/06/01 10:03:04;;;;;;;5.37;1.40;;;;;;;16.68;40.43;100584.98;1782982;79;21238;-70
2021/06/01 10:05:34;;;;;;;3.20;1.27;;;;;;;16.75;38.90;100590.81;1798974;79;21066;-69
2021/06/01 10:08:21;;;;;;;6.17;1.30;;;;;;;16.93;39.48;100591.30;1786600;79;21112;-69
2021/06/01 10:11:07;;;;;;;7.90;1.50;;;;;;;17.05;39.56;100590.27;1781835;80;21198;-69
2021/06/01 10:13:37;;;;;;;6.43;1.47;;;;;;;17.04;39.87;100590.55;1777842;79;21240;-69
2021/06/01 10:16:10;;;;;;;5.67;1.50;;;;;;;16.96;40.64;100593.95;1736491;81;21095;-70
2021/06/01 10:18:42;;;;;;;2.93;1.30;;;;;;;16.84;38.76;100589.84;1784615;79;20978;-70
2021/06/01 10:21:14;;;;;;;3.10;1.40;;;;;;;16.71;40.19;100596.53;1786151;79;20980;-69
2021/06/01 10:23:43;;;;;;;4.33;1.30;;;;;;;16.68;41.02;100592.52;1786409;79;21086;-69
2021/06/01 10:26:12;;;;;;;7.90;1.87;;;;;;;16.64;39.77;100598.27;1760733;79;21120;-70
2021/06/01 10:28:45;;;;;;;4.62;1.52;;;;;;;16.50;39.53;100594.74;1789600;79;20925;-69
2021/06/01 10:31:15;;;;;;;3.37;1.60;;;;;;;16.42;38.75;100593.53;1784115;79;21618;-68
2021/06/01 10:33:51;;;;;;;2.43;1.20;;;;;;;16.35;38.97;100585.00;1781012;79;21085;-71
2021/06/01 10:50:58;;;;;;;2.73;1.30;;;;;;;16.26;40.34;100581.39;1724742;81;21582;-71
2021/06/01 10:53:21;;;;;;;4.27;1.40;;;;;;;16.16;39.94;100591.23;1767245;80;21655;-70
2021/06/01 10:55:56;;;;;;;2.27;1.30;;;;;;;16.04;40.17;100593.56;1780753;79;21065;-68
2021/06/01 10:58:40;;;;;;;4.33;1.43;;;;;;;15.95;41.06;100592.63;1782532;79;21076;-69
2021/06/01 11:04:29;;;;;;;4.20;1.50;;;;;;;16.00;41.13;100591.21;1783461;79;20298;-69
2021/06/01 11:09:37;;;;;;;2.87;1.37;;;;;;;16.33;39.86;100583.16;1791200;79;21080;-70
2021/06/01 11:12:21;;;;;;;5.83;1.33;;;;;;;16.54;41.05;100581.71;1784083;80;21610;-70
2021/06/01 11:14:50;;;;;;;3.10;1.40;;;;;;;16.77;39.18;100580.55;1769993;79;21085;-69
2021/06/01 11:17:34;;;;;;;4.50;1.27;;;;;;;16.85;39.69;100578.52;1780981;79;21088;-69
2021/06/01 11:20:19;;;;;;;2.27;1.20;;;;;;;16.89;39.11;100572.77;1783082;79;21124;-70
2021/06/01 11:22:52;;;;;;;3.95;1.30;;;;;;;16.84;38.59;100579.59;1783676;79;21072;-69
2021/06/01 11:33:26;;;;;;;2.40;1.40;;;;;;;16.83;38.52;100582.05;1784135;79;21727;-71
2021/06/01 11:35:55;;;;;;;;;;;;;;;16.94;39.00;100580.75;1786843;79;21167;-69
2021/06/01 11:38:30;;;;;;;3.50;1.40;;;;;;;17.02;39.27;100581.42;1779893;79;20270;-69
2021/06/01 11:43:31;;;;;;;4.17;1.20;;;;;;;17.06;38.67;100582.97;1780452;79;21060;-71
2021/06/01 11:51:25;;;;;;;2.50;1.20;;;;;;;17.07;38.53;100563.77;1776084;79;21120;-70
2021/06/01 11:53:59;;;;;;;;;;;;;;;17.19;38.23;100567.88;1798149;79;20997;-70
2021/06/01 11:56:54;;;;;;;6.83;1.77;;;;;;;17.22;38.25;100568.08;1795977;79;20258;-70
2021/06/01 12:02:17;;;;;;;4.60;1.30;;;;;;;17.05;38.84;100561.94;1792188;79;22454;-70
2021/06/01 12:05:08;;;;;;;2.77;1.10;;;;;;;17.03;39.29;100573.56;1793085;79;21013;-70
2021/06/01 12:18:48;;;;;;;3.77;1.40;;;;;;;17.26;37.51;100570.41;1788820;79;21108;-70
2021/06/01 12:21:24;;;;;;;3.57;1.30;;;;;;;17.18;37.49;100571.13;1783204;79;21053;-70
2021/06/01 12:24:08;;;;;;;3.93;1.40;;;;;;;17.23;38.79;100574.27;1773282;80;21676;-69
2021/06/01 12:26:59;;;;;;;2.30;1.10;;;;;;;17.33;37.39;100570.01;1773151;79;21123;-70
2021/06/01 12:32:26;;;;;;;5.23;1.40;;;;;;;17.34;37.05;100561.63;1792606;79;21599;-69
2021/06/01 12:43:31;;;;;;;4.97;1.53;;;;;;;17.20;38.44;100560.81;1795541;79;21084;-69
2021/06/01 13:12:50;;;;;;;3.40;1.40;;;;;;;16.78;37.90;100558.68;1741851;81;22179;-69
2021/06/01 13:20:54;;;;;;;3.73;1.53;;;;;;;16.81;37.70;100566.70;1733265;80;21139;-73
2021/06/01 13:39:56;;;;;;;3.60;1.57;;;;;;;16.81;38.84;100569.40;1786848;79;21092;-69
2021/06/01 13:55:06;;;;;;;4.57;1.90;;;;;;;17.18;37.83;100558.98;1701084;82;21662;-69
2021/06/01 13:55:42;;;;;;;;;;;;;;;16.96;38.04;100558.88;1782239;79;21077;-70
2021/06/01 15:11:13;;;;;;;3.27;1.80;;;;;;;16.13;40.78;100576.20;1800359;79;21999;-69
2021/06/01 15:52:36;;;;;;;4.47;1.67;;;;;;;15.67;41.57;100581.70;1785029;79;21639;-70
2021/06/01 16:11:36;;;;;;;4.43;1.60;;;;;;;15.60;41.95;100576.41;1778905;79;22265;-70
2021/06/01 16:14:10;;;;;;;3.17;1.73;;;;;;;15.42;42.08;100585.48;1723497;81;21095;-69
2021/06/01 16:33:18;;;;;;;2.93;1.70;;;;;;;14.95;43.57;100585.77;1782684;79;21735;-69
2021/06/01 16:43:55;;;;;;;4.50;2.10;;;;;;;14.85;44.44;100579.70;1786994;79;21625;-69